sensor_id;sensor_type;location;lat;lon;timestamp;pressure;altitude;pressure_sealevel;temperature;humidity
4392;BME280;2210;51.938;8.488;2023-02-12T00:02:58;102632.09;;;7.53;100.00
4392;BME280;2210;51.938;8.488;2023-02-12T00:06:59;102639.31;;;7.54;100.00
4392;BME280;2210;51.938;8.488;2023-02-12T00:10:59;102645.66;;;7.55;100.00
4392;BME280;2210;51.938;8.488;2023-02-12T00:15:06;102629.50;;;7.52;100.00
4392;BME280;2210;51.938;8.488;2023-02-12T00:19:06;102637.78;;;7.60;100.00
4392;BME280;2210;51.938;8.488;2023-02-12T00:23:06;102636.75;;;7.53;100.00
4392;BME280;2210;51.938;8.488;2023-02-12T00:27:07;102639.31;;;7.54;100.00
4392;BME280;2210;51.938;8.488;2023-02-12T00:31:09;102644.25;;;7.51;100.00
4392;BME280;2210;51.938;8.488;2023-02-12T00:35:13;102640.16;;;7.55;100.00
4392;BME280;2210;51.938;8.488;2023-02-12T00:39:13;102647.19;;;7.49;100.00
4392;BME280;2210;51.938;8.488;2023-02-12T00:43:20;102643.88;;;7.46;100.00
4392;BME280;2210;51.938;8.488;2023-02-12T00:47:30;102652.13;;;7.46;100.00
4392;BME280;2210;51.938;8.488;2023-02-12T00:51:39;102646.97;;;7.42;100.00
4392;BME280;2210;51.938;8.488;2023-02-12T00:55:42;102642.53;;;7.50;100.00
4392;BME280;2210;51.938;8.488;2023-02-12T00:59:43;102650.78;;;7.50;100.00
4392;BME280;2210;51.938;8.488;2023-02-12T01:03:43;102650.41;;;7.45;100.00
4392;BME280;2210;51.938;8.488;2023-02-12T01:07:43;102643.88;;;7.46;100.00
4392;BME280;2210;51.938;8.488;2023-02-12T01:11:47;102651.09;;;7.47;100.00
4392;BME280;2210;51.938;8.488;2023-02-12T01:15:48;102649.22;;;7.47;100.00
4392;BME280;2210;51.938;8.488;2023-02-12T01:19:48;102662.47;;;7.52;100.00
4392;BME280;2210;51.938;8.488;2023-02-12T01:23:49;102655.06;;;7.52;100.00
4392;BME280;2210;51.938;8.488;2023-02-12T01:27:52;102650.81;;;7.58;100.00
4392;BME280;2210;51.938;8.488;2023-02-12T01:31:53;102660.59;;;7.60;100.00
4392;BME280;2210;51.938;8.488;2023-02-12T01:35:53;102659.22;;;7.56;100.00
4392;BME280;2210;51.938;8.488;2023-02-12T01:39:59;102665.88;;;7.54;100.00
4392;BME280;2210;51.938;8.488;2023-02-12T01:48:16;102661.56;;;7.51;100.00
4392;BME280;2210;51.938;8.488;2023-02-12T01:52:29;102659.53;;;7.53;100.00
4392;BME280;2210;51.938;8.488;2023-02-12T01:56:33;102657.28;;;7.49;100.00
4392;BME280;2210;51.938;8.488;2023-02-12T02:00:34;102650.41;;;7.45;100.00
4392;BME280;2210;51.938;8.488;2023-02-12T02:04:41;102654.91;;;7.54;100.00
4392;BME280;2210;51.938;8.488;2023-02-12T02:08:43;102649.78;;;7.59;100.00
4392;BME280;2210;51.938;8.488;2023-02-12T02:12:43;102660.22;;;7.55;100.00
4392;BME280;2210;51.938;8.488;2023-02-12T02:17:20;102652.88;;;7.56;100.00
4392;BME280;2210;51.938;8.488;2023-02-12T02:21:40;102651.78;;;7.49;100.00
4392;BME280;2210;51.938;8.488;2023-02-12T02:30:39;102642.66;;;7.40;100.00
4392;BME280;2210;51.938;8.488;2023-02-12T02:35:08;102653.47;;;7.41;100.00
4392;BME280;2210;51.938;8.488;2023-02-12T02:39:25;102646.97;;;7.42;100.00
4392;BME280;2210;51.938;8.488;2023-02-12T02:43:32;102645.25;;;7.41;100.00
4392;BME280;2210;51.938;8.488;2023-02-12T02:47:40;102637.94;;;7.58;100.00
4392;BME280;2210;51.938;8.488;2023-02-12T02:51:45;102636.78;;;7.61;100.00
4392;BME280;2210;51.938;8.488;2023-02-12T02:55:50;102630.75;;;7.57;100.00
4392;BME280;2210;51.938;8.488;2023-02-12T02:59:55;102636.06;;;7.59;100.00
4392;BME280;2210;51.938;8.488;2023-02-12T03:08:07;102637.94;;;7.58;100.00
4392;BME280;2210;51.938;8.488;2023-02-12T03:12:18;102631.94;;;7.63;100.00
4392;BME280;2210;51.938;8.488;2023-02-12T03:16:25;102643.28;;;7.60;100.00
4392;BME280;2210;51.938;8.488;2023-02-12T03:20:34;102633.63;;;7.48;100.00
4392;BME280;2210;51.938;8.488;2023-02-12T03:24:45;102637.59;;;7.53;100.00
4392;BME280;2210;51.938;8.488;2023-02-12T03:28:47;102635.16;;;7.42;100.00
4392;BME280;2210;51.938;8.488;2023-02-12T03:41:26;102623.88;;;7.62;100.00
4392;BME280;2210;51.938;8.488;2023-02-12T03:45:39;102633.44;;;7.49;100.00
4392;BME280;2210;51.938;8.488;2023-02-12T03:53:48;102632.88;;;7.37;100.00
4392;BME280;2210;51.938;8.488;2023-02-12T03:57:53;102630.16;;;7.46;100.00
4392;BME280;2210;51.938;8.488;2023-02-12T04:01:56;102634.19;;;7.25;100.00
4392;BME280;2210;51.938;8.488;2023-02-12T04:06:00;102650.84;;;7.32;100.00
4392;BME280;2210;51.938;8.488;2023-02-12T04:10:01;102651.50;;;7.25;100.00
4392;BME280;2210;51.938;8.488;2023-02-12T04:18:19;102662.00;;;7.30;100.00
4392;BME280;2210;51.938;8.488;2023-02-12T04:27:15;102671.97;;;7.31;100.00
4392;BME280;2210;51.938;8.488;2023-02-12T04:35:40;102681.53;;;7.27;100.00
4392;BME280;2210;51.938;8.488;2023-02-12T04:39:43;102684.81;;;7.31;100.00
4392;BME280;2210;51.938;8.488;2023-02-12T04:43:44;102693.50;;;7.18;100.00
4392;BME280;2210;51.938;8.488;2023-02-12T04:47:45;102692.19;;;7.30;100.00
4392;BME280;2210;51.938;8.488;2023-02-12T04:51:46;102697.28;;;7.25;100.00
4392;BME280;2210;51.938;8.488;2023-02-12T04:55:46;102701.44;;;7.29;100.00
4392;BME280;2210;51.938;8.488;2023-02-12T04:59:49;102698.75;;;7.11;100.00
4392;BME280;2210;51.938;8.488;2023-02-12T05:03:55;102702.50;;;7.10;100.00
4392;BME280;2210;51.938;8.488;2023-02-12T05:07:56;102709.50;;;7.04;100.00
4392;BME280;2210;51.938;8.488;2023-02-12T05:11:56;102695.97;;;7.03;100.00
4392;BME280;2210;51.938;8.488;2023-02-12T05:16:06;102712.94;;;7.06;100.00
4392;BME280;2210;51.938;8.488;2023-02-12T05:20:07;102707.50;;;7.15;100.00
4392;BME280;2210;51.938;8.488;2023-02-12T05:24:13;102703.50;;;7.27;100.00
4392;BME280;2210;51.938;8.488;2023-02-12T05:28:13;102701.97;;;7.33;100.00
4392;BME280;2210;51.938;8.488;2023-02-12T05:32:16;102697.63;;;7.22;100.00
4392;BME280;2210;51.938;8.488;2023-02-12T05:36:21;102707.47;;;7.33;100.00
4392;BME280;2210;51.938;8.488;2023-02-12T05:40:22;102697.03;;;7.10;100.00
4392;BME280;2210;51.938;8.488;2023-02-12T05:44:25;102694.56;;;7.25;100.00
4392;BME280;2210;51.938;8.488;2023-02-12T05:48:26;102705.16;;;7.20;100.00
4392;BME280;2210;51.938;8.488;2023-02-12T05:52:30;102700.25;;;7.05;100.00
4392;BME280;2210;51.938;8.488;2023-02-12T05:56:43;102710.03;;;7.08;100.00
4392;BME280;2210;51.938;8.488;2023-02-12T06:00:44;102702.84;;;7.07;100.00
4392;BME280;2210;51.938;8.488;2023-02-12T06:04:50;102708.22;;;7.17;100.00
4392;BME280;2210;51.938;8.488;2023-02-12T06:08:51;102707.22;;;7.18;100.00
4392;BME280;2210;51.938;8.488;2023-02-12T06:12:55;102702.94;;;7.23;100.00
4392;BME280;2210;51.938;8.488;2023-02-12T06:16:55;102699.22;;;7.06;100.00
4392;BME280;2210;51.938;8.488;2023-02-12T06:20:59;102703.47;;;7.01;100.00
4392;BME280;2210;51.938;8.488;2023-02-12T06:25:03;102711.09;;;6.89;100.00
4392;BME280;2210;51.938;8.488;2023-02-12T06:29:07;102707.56;;;6.97;100.00
4392;BME280;2210;51.938;8.488;2023-02-12T06:33:07;102708.72;;;6.94;100.00
4392;BME280;2210;51.938;8.488;2023-02-12T06:37:11;102709.84;;;7.01;100.00
4392;BME280;2210;51.938;8.488;2023-02-12T06:41:12;102715.31;;;7.01;100.00
4392;BME280;2210;51.938;8.488;2023-02-12T06:45:12;102723.22;;;7.04;100.00
4392;BME280;2210;51.938;8.488;2023-02-12T06:49:13;102727.25;;;6.92;100.00
4392;BME280;2210;51.938;8.488;2023-02-12T06:53:13;102727.75;;;6.96;100.00
4392;BME280;2210;51.938;8.488;2023-02-12T06:57:13;102724.72;;;6.81;100.00
4392;BME280;2210;51.938;8.488;2023-02-12T07:01:22;102729.19;;;6.82;100.00
4392;BME280;2210;51.938;8.488;2023-02-12T07:05:26;102735.53;;;6.82;100.00
4392;BME280;2210;51.938;8.488;2023-02-12T07:09:29;102739.84;;;6.85;100.00
4392;BME280;2210;51.938;8.488;2023-02-12T07:13:30;102752.16;;;6.81;100.00
4392;BME280;2210;51.938;8.488;2023-02-12T07:17:30;102751.84;;;6.84;100.00
4392;BME280;2210;51.938;8.488;2023-02-12T07:21:33;102755.34;;;6.94;100.00
4392;BME280;2210;51.938;8.488;2023-02-12T07:25:36;102760.84;;;6.94;100.00
4392;BME280;2210;51.938;8.488;2023-02-12T07:29:37;102758.97;;;6.95;100.00
4392;BME280;2210;51.938;8.488;2023-02-12T07:33:37;102772.81;;;6.93;100.00
4392;BME280;2210;51.938;8.488;2023-02-12T07:37:38;102776.44;;;6.94;100.00
4392;BME280;2210;51.938;8.488;2023-02-12T07:41:38;102781.16;;;7.01;100.00
4392;BME280;2210;51.938;8.488;2023-02-12T07:45:38;102787.94;;;6.97;100.00
4392;BME280;2210;51.938;8.488;2023-02-12T07:49:39;102783.50;;;6.96;100.00
4392;BME280;2210;51.938;8.488;2023-02-12T07:53:39;102787.66;;;7.00;100.00
4392;BME280;2210;51.938;8.488;2023-02-12T07:57:43;102792.50;;;7.06;100.00
4392;BME280;2210;51.938;8.488;2023-02-12T08:01:50;102792.56;;;7.15;100.00
4392;BME280;2210;51.938;8.488;2023-02-12T08:05:51;102794.63;;;7.13;100.00
4392;BME280;2210;51.938;8.488;2023-02-12T08:09:51;102801.28;;;7.10;100.00
4392;BME280;2210;51.938;8.488;2023-02-12T08:13:52;102791.81;;;7.04;100.00
4392;BME280;2210;51.938;8.488;2023-02-12T08:17:55;102805.84;;;7.01;100.00
4392;BME280;2210;51.938;8.488;2023-02-12T08:21:56;102810.69;;;7.07;100.00
4392;BME280;2210;51.938;8.488;2023-02-12T08:26:22;102812.19;;;7.02;100.00
4392;BME280;2210;51.938;8.488;2023-02-12T08:30:25;102811.41;;;7.09;100.00
4392;BME280;2210;51.938;8.488;2023-02-12T08:34:30;102811.41;;;7.09;100.00
4392;BME280;2210;51.938;8.488;2023-02-12T08:38:32;102821.50;;;7.09;100.00
4392;BME280;2210;51.938;8.488;2023-02-12T08:42:35;102825.41;;;7.06;100.00
4392;BME280;2210;51.938;8.488;2023-02-12T08:46:38;102824.06;;;7.11;100.00
4392;BME280;2210;51.938;8.488;2023-02-12T08:50:39;102825.53;;;7.23;100.00
4392;BME280;2210;51.938;8.488;2023-02-12T08:54:42;102832.47;;;7.27;100.00
4392;BME280;2210;51.938;8.488;2023-02-12T08:58:43;102830.09;;;7.32;100.00
4392;BME280;2210;51.938;8.488;2023-02-12T09:02:47;102829.59;;;7.55;100.00
4392;BME280;2210;51.938;8.488;2023-02-12T09:06:50;102830.72;;;7.70;100.00
4392;BME280;2210;51.938;8.488;2023-02-12T09:10:53;102827.91;;;7.62;100.00
4392;BME280;2210;51.938;8.488;2023-02-12T09:15:00;102838.44;;;7.67;100.00
4392;BME280;2210;51.938;8.488;2023-02-12T09:19:07;102837.19;;;7.61;100.00
4392;BME280;2210;51.938;8.488;2023-02-12T09:23:14;102844.13;;;7.73;100.00
4392;BME280;2210;51.938;8.488;2023-02-12T09:27:14;102843.63;;;7.78;100.00
4392;BME280;2210;51.938;8.488;2023-02-12T09:31:20;102846.56;;;7.76;100.00
4392;BME280;2210;51.938;8.488;2023-02-12T09:35:22;102846.06;;;7.81;100.00
4392;BME280;2210;51.938;8.488;2023-02-12T09:39:23;102850.75;;;7.89;100.00
4392;BME280;2210;51.938;8.488;2023-02-12T09:43:48;102842.63;;;8.14;100.00
4392;BME280;2210;51.938;8.488;2023-02-12T09:51:57;102850.91;;;8.22;100.00
4392;BME280;2210;51.938;8.488;2023-02-12T09:55:57;102850.47;;;8.35;100.00
4392;BME280;2210;51.938;8.488;2023-02-12T10:00:09;102856.44;;;8.30;100.00
4392;BME280;2210;51.938;8.488;2023-02-12T10:04:11;102855.53;;;8.48;100.00
4392;BME280;2210;51.938;8.488;2023-02-12T10:08:30;102852.66;;;8.57;100.00
4392;BME280;2210;51.938;8.488;2023-02-12T10:17:34;102849.03;;;8.57;100.00
4392;BME280;2210;51.938;8.488;2023-02-12T10:26:23;102859.53;;;8.27;100.00
4392;BME280;2210;51.938;8.488;2023-02-12T10:30:44;102851.59;;;8.16;100.00
4392;BME280;2210;51.938;8.488;2023-02-12T10:34:47;102861.59;;;8.25;100.00
4392;BME280;2210;51.938;8.488;2023-02-12T10:38:52;102868.16;;;8.32;100.00
4392;BME280;2210;51.938;8.488;2023-02-12T10:42:56;102862.47;;;8.25;100.00
4392;BME280;2210;51.938;8.488;2023-02-12T10:46:56;102855.03;;;8.18;100.00
4392;BME280;2210;51.938;8.488;2023-02-12T10:51:19;102857.16;;;8.32;100.00
4392;BME280;2210;51.938;8.488;2023-02-12T10:55:32;102861.66;;;8.33;100.00
4392;BME280;2210;51.938;8.488;2023-02-12T10:59:33;102855.44;;;8.31;100.00
4392;BME280;2210;51.938;8.488;2023-02-12T11:03:33;102849.91;;;8.23;100.00
4392;BME280;2210;51.938;8.488;2023-02-12T11:07:46;102849.06;;;8.22;100.00
4392;BME280;2210;51.938;8.488;2023-02-12T11:11:46;102849.44;;;8.27;100.00
4392;BME280;2210;51.938;8.488;2023-02-12T11:15:47;102850.56;;;8.17;100.00
4392;BME280;2210;51.938;8.488;2023-02-12T11:20:14;102845.75;;;8.19;100.00
4392;BME280;2210;51.938;8.488;2023-02-12T11:28:35;102844.56;;;8.21;100.00
4392;BME280;2210;51.938;8.488;2023-02-12T11:32:42;102829.28;;;8.19;100.00
4392;BME280;2210;51.938;8.488;2023-02-12T11:36:45;102828.41;;;8.18;100.00
4392;BME280;2210;51.938;8.488;2023-02-12T11:40:46;102825.84;;;8.17;100.00
4392;BME280;2210;51.938;8.488;2023-02-12T11:44:49;102830.31;;;8.26;100.00
4392;BME280;2210;51.938;8.488;2023-02-12T11:48:52;102820.59;;;8.32;100.00
4392;BME280;2210;51.938;8.488;2023-02-12T11:53:07;102820.06;;;8.36;100.00
4392;BME280;2210;51.938;8.488;2023-02-12T11:57:44;102822.84;;;8.44;100.00
4392;BME280;2210;51.938;8.488;2023-02-12T12:01:50;102819.66;;;8.49;100.00
4392;BME280;2210;51.938;8.488;2023-02-12T12:06:04;102818.72;;;8.40;100.00
4392;BME280;2210;51.938;8.488;2023-02-12T12:19:12;102800.53;;;8.48;100.00
4392;BME280;2210;51.938;8.488;2023-02-12T12:23:40;102804.09;;;8.32;100.00
4392;BME280;2210;51.938;8.488;2023-02-12T12:27:54;102803.22;;;8.39;100.00
4392;BME280;2210;51.938;8.488;2023-02-12T12:32:11;102805.38;;;8.46;100.00
4392;BME280;2210;51.938;8.488;2023-02-12T12:36:50;102802.31;;;8.65;100.00
4392;BME280;2210;51.938;8.488;2023-02-12T12:49:44;102782.56;;;8.70;100.00
4392;BME280;2210;51.938;8.488;2023-02-12T13:03:12;102761.78;;;9.00;100.00
4392;BME280;2210;51.938;8.488;2023-02-12T13:12:27;102762.31;;;8.87;100.00
4392;BME280;2210;51.938;8.488;2023-02-12T13:16:42;102753.88;;;8.89;100.00
4392;BME280;2210;51.938;8.488;2023-02-12T13:20:55;102752.16;;;8.88;100.00
4392;BME280;2210;51.938;8.488;2023-02-12T13:29:36;102752.84;;;9.15;100.00
4392;BME280;2210;51.938;8.488;2023-02-12T13:33:43;102745.59;;;9.22;100.00
4392;BME280;2210;51.938;8.488;2023-02-12T13:37:48;102759.19;;;9.15;100.00
4392;BME280;2210;51.938;8.488;2023-02-12T13:42:24;102752.84;;;9.15;100.00
4392;BME280;2210;51.938;8.488;2023-02-12T14:03:32;102750.28;;;9.13;100.00
4392;BME280;2210;51.938;8.488;2023-02-12T14:07:43;102748.00;;;9.17;100.00
4392;BME280;2210;51.938;8.488;2023-02-12T14:11:51;102750.09;;;9.06;100.00
4392;BME280;2210;51.938;8.488;2023-02-12T14:20:35;102748.00;;;9.08;100.00
4392;BME280;2210;51.938;8.488;2023-02-12T14:28:58;102743.56;;;9.16;100.00
4392;BME280;2210;51.938;8.488;2023-02-12T14:37:15;102742.84;;;9.14;100.00
4392;BME280;2210;51.938;8.488;2023-02-12T14:41:37;102746.97;;;9.18;100.00
4392;BME280;2210;51.938;8.488;2023-02-12T14:45:40;102746.31;;;9.24;100.00
4392;BME280;2210;51.938;8.488;2023-02-12T14:50:17;102740.09;;;9.14;100.00
4392;BME280;2210;51.938;8.488;2023-02-12T14:54:56;102747.34;;;9.15;100.00
4392;BME280;2210;51.938;8.488;2023-02-12T14:58:59;102734.59;;;9.05;100.00
4392;BME280;2210;51.938;8.488;2023-02-12T15:07:19;102740.09;;;9.14;100.00
4392;BME280;2210;51.938;8.488;2023-02-12T15:15:53;102743.56;;;9.24;100.00
4392;BME280;2210;51.938;8.488;2023-02-12T15:19:57;102743.22;;;9.10;100.00
4392;BME280;2210;51.938;8.488;2023-02-12T15:28:24;102739.41;;;8.95;100.00
4392;BME280;2210;51.938;8.488;2023-02-12T15:32:28;102736.84;;;8.93;100.00
4392;BME280;2210;51.938;8.488;2023-02-12T15:36:44;102740.78;;;8.91;100.00
4392;BME280;2210;51.938;8.488;2023-02-12T15:40:55;102736.34;;;8.90;100.00
4392;BME280;2210;51.938;8.488;2023-02-12T15:49:19;102748.03;;;8.92;100.00
4392;BME280;2210;51.938;8.488;2023-02-12T15:53:22;102735.63;;;8.88;100.00
4392;BME280;2210;51.938;8.488;2023-02-12T15:57:23;102732.88;;;8.88;100.00
4392;BME280;2210;51.938;8.488;2023-02-12T16:01:30;102741.50;;;8.85;100.00
4392;BME280;2210;51.938;8.488;2023-02-12T16:05:31;102734.25;;;9.00;100.00
4392;BME280;2210;51.938;8.488;2023-02-12T16:09:35;102739.41;;;9.03;100.00
4392;BME280;2210;51.938;8.488;2023-02-12T16:13:36;102744.06;;;8.86;100.00
4392;BME280;2210;51.938;8.488;2023-02-12T16:17:45;102740.47;;;8.86;100.00
4392;BME280;2210;51.938;8.488;2023-02-12T16:22:13;102738.56;;;8.86;100.00
4392;BME280;2210;51.938;8.488;2023-02-12T16:26:23;102745.25;;;8.75;100.00
4392;BME280;2210;51.938;8.488;2023-02-12T16:30:28;102742.16;;;8.70;100.00
4392;BME280;2210;51.938;8.488;2023-02-12T16:34:32;102747.66;;;8.70;100.00
4392;BME280;2210;51.938;8.488;2023-02-12T16:38:48;102746.28;;;8.66;100.00
4392;BME280;2210;51.938;8.488;2023-02-12T16:46:54;102744.22;;;8.60;100.00
4392;BME280;2210;51.938;8.488;2023-02-12T16:51:04;102738.00;;;8.50;100.00
4392;BME280;2210;51.938;8.488;2023-02-12T16:55:16;102745.41;;;8.49;100.00
4392;BME280;2210;51.938;8.488;2023-02-12T16:59:17;102746.25;;;8.50;100.00
4392;BME280;2210;51.938;8.488;2023-02-12T17:03:17;102748.00;;;8.51;100.00
4392;BME280;2210;51.938;8.488;2023-02-12T17:07:23;102757.94;;;8.52;100.00
4392;BME280;2210;51.938;8.488;2023-02-12T17:11:27;102763.56;;;8.42;100.00
4392;BME280;2210;51.938;8.488;2023-02-12T17:15:58;102759.16;;;8.49;100.00
4392;BME280;2210;51.938;8.488;2023-02-12T17:20:09;102757.09;;;8.51;100.00
4392;BME280;2210;51.938;8.488;2023-02-12T17:24:22;102758.28;;;8.49;100.00
4392;BME280;2210;51.938;8.488;2023-02-12T17:28:23;102767.84;;;8.44;100.00
4392;BME280;2210;51.938;8.488;2023-02-12T17:32:24;102775.13;;;8.46;100.00
4392;BME280;2210;51.938;8.488;2023-02-12T17:36:24;102774.59;;;8.50;100.00
4392;BME280;2210;51.938;8.488;2023-02-12T17:40:28;102779.94;;;8.52;100.00
4392;BME280;2210;51.938;8.488;2023-02-12T17:44:28;102783.91;;;8.49;100.00
4392;BME280;2210;51.938;8.488;2023-02-12T17:48:34;102782.13;;;8.40;100.00
4392;BME280;2210;51.938;8.488;2023-02-12T17:52:35;102785.03;;;8.38;100.00
4392;BME280;2210;51.938;8.488;2023-02-12T17:56:35;102785.91;;;8.39;100.00
4392;BME280;2210;51.938;8.488;2023-02-12T18:00:35;102785.78;;;8.49;100.00
4392;BME280;2210;51.938;8.488;2023-02-12T18:04:35;102783.22;;;8.55;100.00
4392;BME280;2210;51.938;8.488;2023-02-12T18:08:39;102793.16;;;8.48;100.00
4392;BME280;2210;51.938;8.488;2023-02-12T18:12:40;102785.91;;;8.39;100.00
4392;BME280;2210;51.938;8.488;2023-02-12T18:16:40;102785.00;;;8.30;100.00
4392;BME280;2210;51.938;8.488;2023-02-12T18:20:41;102782.75;;;8.25;100.00
4392;BME280;2210;51.938;8.488;2023-02-12T18:24:41;102779.84;;;8.35;100.00
4392;BME280;2210;51.938;8.488;2023-02-12T18:28:44;102778.81;;;8.28;100.00
4392;BME280;2210;51.938;8.488;2023-02-12T18:32:45;102765.25;;;8.26;100.00
4392;BME280;2210;51.938;8.488;2023-02-12T18:36:45;102779.84;;;8.27;100.00
4392;BME280;2210;51.938;8.488;2023-02-12T18:40:45;102774.66;;;8.16;100.00
4392;BME280;2210;51.938;8.488;2023-02-12T18:44:45;102779.25;;;8.15;100.00
4392;BME280;2210;51.938;8.488;2023-02-12T18:48:47;102771.22;;;8.22;100.00
4392;BME280;2210;51.938;8.488;2023-02-12T18:52:47;102775.13;;;8.46;100.00
4392;BME280;2210;51.938;8.488;2023-02-12T18:56:51;102775.13;;;8.46;100.00
4392;BME280;2210;51.938;8.488;2023-02-12T19:00:52;102787.19;;;8.18;100.00
4392;BME280;2210;51.938;8.488;2023-02-12T19:04:52;102792.91;;;8.25;100.00
4392;BME280;2210;51.938;8.488;2023-02-12T19:09:02;102783.47;;;8.27;100.00
4392;BME280;2210;51.938;8.488;2023-02-12T19:13:02;102779.31;;;8.23;100.00
4392;BME280;2210;51.938;8.488;2023-02-12T19:17:03;102781.91;;;8.25;100.00
4392;BME280;2210;51.938;8.488;2023-02-12T19:21:10;102779.16;;;8.25;100.00
4392;BME280;2210;51.938;8.488;2023-02-12T19:25:14;102779.16;;;8.25;100.00
4392;BME280;2210;51.938;8.488;2023-02-12T19:29:15;102779.13;;;8.17;100.00
4392;BME280;2210;51.938;8.488;2023-02-12T19:33:20;102783.44;;;8.19;100.00
4392;BME280;2210;51.938;8.488;2023-02-12T19:37:20;102781.91;;;8.25;100.00
4392;BME280;2210;51.938;8.488;2023-02-12T19:41:25;102779.78;;;8.10;100.00
4392;BME280;2210;51.938;8.488;2023-02-12T19:45:25;102789.22;;;8.08;100.00
4392;BME280;2210;51.938;8.488;2023-02-12T19:49:27;102782.91;;;8.16;100.00
4392;BME280;2210;51.938;8.488;2023-02-12T19:53:28;102784.75;;;8.15;100.00
4392;BME280;2210;51.938;8.488;2023-02-12T19:57:28;102779.13;;;8.17;100.00
4392;BME280;2210;51.938;8.488;2023-02-12T20:01:29;102781.53;;;8.20;100.00
4392;BME280;2210;51.938;8.488;2023-02-12T20:05:30;102782.88;;;8.07;100.00
4392;BME280;2210;51.938;8.488;2023-02-12T20:09:36;102786.66;;;8.15;100.00
4392;BME280;2210;51.938;8.488;2023-02-12T20:13:36;102782.22;;;8.22;100.00
4392;BME280;2210;51.938;8.488;2023-02-12T20:17:37;102776.38;;;8.17;100.00
4392;BME280;2210;51.938;8.488;2023-02-12T20:21:41;102777.03;;;8.10;100.00
4392;BME280;2210;51.938;8.488;2023-02-12T20:25:43;102780.69;;;8.19;100.00
4392;BME280;2210;51.938;8.488;2023-02-12T20:29:47;102784.59;;;8.08;100.00
4392;BME280;2210;51.938;8.488;2023-02-12T20:33:51;102785.31;;;8.19;100.00
4392;BME280;2210;51.938;8.488;2023-02-12T20:37:51;102789.25;;;8.24;100.00
4392;BME280;2210;51.938;8.488;2023-02-12T20:41:52;102794.25;;;8.21;100.00
4392;BME280;2210;51.938;8.488;2023-02-12T20:45:52;102786.63;;;8.06;100.00
4392;BME280;2210;51.938;8.488;2023-02-12T20:49:53;102782.88;;;8.07;100.00
4392;BME280;2210;51.938;8.488;2023-02-12T20:53:54;102787.69;;;8.14;100.00
4392;BME280;2210;51.938;8.488;2023-02-12T20:57:54;102777.66;;;8.04;100.00
4392;BME280;2210;51.938;8.488;2023-02-12T21:01:54;102777.44;;;7.89;100.00
4392;BME280;2210;51.938;8.488;2023-02-12T21:05:55;102779.00;;;7.92;100.00
4392;BME280;2210;51.938;8.488;2023-02-12T21:09:55;102782.44;;;7.94;100.00
4392;BME280;2210;51.938;8.488;2023-02-12T21:14:01;102781.06;;;7.90;100.00
4392;BME280;2210;51.938;8.488;2023-02-12T21:18:05;102779.72;;;7.94;100.00
4392;BME280;2210;51.938;8.488;2023-02-12T21:22:05;102777.13;;;7.92;100.00
4392;BME280;2210;51.938;8.488;2023-02-12T21:26:11;102774.69;;;7.89;100.00
4392;BME280;2210;51.938;8.488;2023-02-12T21:30:14;102779.72;;;7.94;100.00
4392;BME280;2210;51.938;8.488;2023-02-12T21:34:18;102775.56;;;7.90;100.00
4392;BME280;2210;51.938;8.488;2023-02-12T21:38:19;102778.31;;;7.90;100.00
4392;BME280;2210;51.938;8.488;2023-02-12T21:42:22;102780.53;;;7.86;100.00
4392;BME280;2210;51.938;8.488;2023-02-12T21:46:23;102774.81;;;7.80;100.00
4392;BME280;2210;51.938;8.488;2023-02-12T21:50:24;102774.81;;;7.80;100.00
4392;BME280;2210;51.938;8.488;2023-02-12T21:54:24;102782.78;;;7.91;100.00
4392;BME280;2210;51.938;8.488;2023-02-12T21:58:27;102787.75;;;7.87;100.00
4392;BME280;2210;51.938;8.488;2023-02-12T22:02:31;102774.44;;;7.74;100.00
4392;BME280;2210;51.938;8.488;2023-02-12T22:06:40;102772.41;;;7.76;100.00
4392;BME280;2210;51.938;8.488;2023-02-12T22:10:43;102771.34;;;7.69;100.00
4392;BME280;2210;51.938;8.488;2023-02-12T22:14:44;102773.97;;;7.79;100.00
4392;BME280;2210;51.938;8.488;2023-02-12T22:19:00;102763.78;;;7.71;100.00
4392;BME280;2210;51.938;8.488;2023-02-12T22:23:00;102757.06;;;7.66;100.00
4392;BME280;2210;51.938;8.488;2023-02-12T22:27:01;102765.94;;;7.59;100.00
4392;BME280;2210;51.938;8.488;2023-02-12T22:31:04;102763.41;;;7.66;100.00
4392;BME280;2210;51.938;8.488;2023-02-12T22:35:05;102766.31;;;7.65;100.00
4392;BME280;2210;51.938;8.488;2023-02-12T22:39:12;102775.06;;;7.60;100.00
4392;BME280;2210;51.938;8.488;2023-02-12T22:43:12;102765.44;;;7.56;100.00
4392;BME280;2210;51.938;8.488;2023-02-12T22:47:12;102768.50;;;7.53;100.00
4392;BME280;2210;51.938;8.488;2023-02-12T22:51:18;102775.69;;;7.54;100.00
4392;BME280;2210;51.938;8.488;2023-02-12T22:55:18;102781.03;;;7.55;100.00
4392;BME280;2210;51.938;8.488;2023-02-12T22:59:19;102774.00;;;7.53;100.00
4392;BME280;2210;51.938;8.488;2023-02-12T23:03:22;102782.28;;;7.61;100.00
4392;BME280;2210;51.938;8.488;2023-02-12T23:07:22;102774.00;;;7.53;100.00
4392;BME280;2210;51.938;8.488;2023-02-12T23:11:23;102763.38;;;7.58;100.00
4392;BME280;2210;51.938;8.488;2023-02-12T23:15:27;102767.63;;;7.52;100.00
4392;BME280;2210;51.938;8.488;2023-02-12T23:19:27;102764.72;;;7.54;100.00
4392;BME280;2210;51.938;8.488;2023-02-12T23:23:31;102758.53;;;7.52;100.00
4392;BME280;2210;51.938;8.488;2023-02-12T23:27:31;102747.56;;;7.52;100.00
4392;BME280;2210;51.938;8.488;2023-02-12T23:31:34;102758.16;;;7.47;100.00
4392;BME280;2210;51.938;8.488;2023-02-12T23:35:35;102742.25;;;7.50;100.00
4392;BME280;2210;51.938;8.488;2023-02-12T23:39:35;102744.44;;;7.47;100.00
4392;BME280;2210;51.938;8.488;2023-02-12T23:43:39;102753.00;;;7.43;100.00
4392;BME280;2210;51.938;8.488;2023-02-12T23:47:40;102751.81;;;7.46;100.00
4392;BME280;2210;51.938;8.488;2023-02-12T23:51:43;102742.72;;;7.46;100.00
4392;BME280;2210;51.938;8.488;2023-02-12T23:55:48;102747.84;;;7.49;100.00
4392;BME280;2210;51.938;8.488;2023-02-12T23:59:52;102748.03;;;7.47;100.00
